sensor_id;sensor_type;location;lat;lon;timestamp;temperature;humidity
45765;DHT22;31474;45.332;10.230;2023-07-31T00:01:26;25.00;99.90
45765;DHT22;31474;45.332;10.230;2023-07-31T00:03:52;24.90;99.90
45765;DHT22;31474;45.332;10.230;2023-07-31T00:06:17;24.90;99.90
45765;DHT22;31474;45.332;10.230;2023-07-31T00:08:43;24.80;99.90
45765;DHT22;31474;45.332;10.230;2023-07-31T00:11:09;24.80;99.90
45765;DHT22;31474;45.332;10.230;2023-07-31T00:13:34;24.80;99.90
45765;DHT22;31474;45.332;10.230;2023-07-31T00:16:00;24.70;99.90
45765;DHT22;31474;45.332;10.230;2023-07-31T00:18:26;24.70;99.90
45765;DHT22;31474;45.332;10.230;2023-07-31T00:20:51;24.70;99.90
45765;DHT22;31474;45.332;10.230;2023-07-31T00:23:17;24.80;99.90
45765;DHT22;31474;45.332;10.230;2023-07-31T00:25:42;24.90;99.90
45765;DHT22;31474;45.332;10.230;2023-07-31T00:28:08;24.90;99.90
45765;DHT22;31474;45.332;10.230;2023-07-31T00:30:34;24.90;99.90
45765;DHT22;31474;45.332;10.230;2023-07-31T00:32:59;25.00;99.90
45765;DHT22;31474;45.332;10.230;2023-07-31T00:35:25;25.00;99.90
45765;DHT22;31474;45.332;10.230;2023-07-31T00:37:51;24.90;99.90
45765;DHT22;31474;45.332;10.230;2023-07-31T00:40:17;24.90;99.90
45765;DHT22;31474;45.332;10.230;2023-07-31T00:42:42;24.90;99.90
45765;DHT22;31474;45.332;10.230;2023-07-31T00:45:08;24.90;99.90
45765;DHT22;31474;45.332;10.230;2023-07-31T00:47:34;24.80;99.90
45765;DHT22;31474;45.332;10.230;2023-07-31T00:50:00;24.70;99.90
45765;DHT22;31474;45.332;10.230;2023-07-31T00:52:25;24.70;99.90
45765;DHT22;31474;45.332;10.230;2023-07-31T00:54:51;24.70;99.90
45765;DHT22;31474;45.332;10.230;2023-07-31T00:57:17;24.70;99.90
45765;DHT22;31474;45.332;10.230;2023-07-31T00:59:43;24.60;99.90
45765;DHT22;31474;45.332;10.230;2023-07-31T01:02:08;24.60;99.90
45765;DHT22;31474;45.332;10.230;2023-07-31T01:04:34;24.70;99.90
45765;DHT22;31474;45.332;10.230;2023-07-31T01:07:27;24.60;99.90
45765;DHT22;31474;45.332;10.230;2023-07-31T01:10:04;24.60;99.90
45765;DHT22;31474;45.332;10.230;2023-07-31T01:12:32;24.60;99.90
45765;DHT22;31474;45.332;10.230;2023-07-31T01:15:06;24.60;99.90
45765;DHT22;31474;45.332;10.230;2023-07-31T01:17:36;24.60;99.90
45765;DHT22;31474;45.332;10.230;2023-07-31T01:20:10;24.50;99.90
45765;DHT22;31474;45.332;10.230;2023-07-31T01:23:41;24.50;99.90
45765;DHT22;31474;45.332;10.230;2023-07-31T01:26:19;24.40;99.90
45765;DHT22;31474;45.332;10.230;2023-07-31T01:28:55;24.40;99.90
45765;DHT22;31474;45.332;10.230;2023-07-31T01:31:25;24.40;99.90
45765;DHT22;31474;45.332;10.230;2023-07-31T01:33:54;24.40;99.90
45765;DHT22;31474;45.332;10.230;2023-07-31T01:36:20;24.30;99.90
45765;DHT22;31474;45.332;10.230;2023-07-31T01:38:46;24.30;99.90
45765;DHT22;31474;45.332;10.230;2023-07-31T01:41:11;24.30;99.90
45765;DHT22;31474;45.332;10.230;2023-07-31T01:43:37;24.40;99.90
45765;DHT22;31474;45.332;10.230;2023-07-31T01:46:03;24.40;99.90
45765;DHT22;31474;45.332;10.230;2023-07-31T01:48:28;24.40;99.90
45765;DHT22;31474;45.332;10.230;2023-07-31T01:50:54;24.50;99.90
45765;DHT22;31474;45.332;10.230;2023-07-31T01:53:19;24.50;99.90
45765;DHT22;31474;45.332;10.230;2023-07-31T01:55:45;24.50;99.90
45765;DHT22;31474;45.332;10.230;2023-07-31T01:58:11;24.30;99.90
45765;DHT22;31474;45.332;10.230;2023-07-31T02:00:36;24.30;99.90
45765;DHT22;31474;45.332;10.230;2023-07-31T02:03:02;24.40;99.90
45765;DHT22;31474;45.332;10.230;2023-07-31T02:05:28;24.40;99.90
45765;DHT22;31474;45.332;10.230;2023-07-31T02:07:53;24.50;99.90
45765;DHT22;31474;45.332;10.230;2023-07-31T02:10:19;24.50;99.90
45765;DHT22;31474;45.332;10.230;2023-07-31T02:12:45;24.40;99.90
45765;DHT22;31474;45.332;10.230;2023-07-31T02:15:10;24.40;99.90
45765;DHT22;31474;45.332;10.230;2023-07-31T02:17:36;24.40;99.90
45765;DHT22;31474;45.332;10.230;2023-07-31T02:20:01;24.40;99.90
45765;DHT22;31474;45.332;10.230;2023-07-31T02:22:28;24.40;99.90
45765;DHT22;31474;45.332;10.230;2023-07-31T02:24:53;24.40;99.90
45765;DHT22;31474;45.332;10.230;2023-07-31T02:27:19;24.50;99.90
45765;DHT22;31474;45.332;10.230;2023-07-31T02:29:44;24.50;99.90
45765;DHT22;31474;45.332;10.230;2023-07-31T02:32:10;24.50;99.90
45765;DHT22;31474;45.332;10.230;2023-07-31T02:34:36;24.60;99.90
45765;DHT22;31474;45.332;10.230;2023-07-31T02:37:01;24.60;99.90
45765;DHT22;31474;45.332;10.230;2023-07-31T02:39:27;24.70;99.90
45765;DHT22;31474;45.332;10.230;2023-07-31T02:41:53;24.70;99.90
45765;DHT22;31474;45.332;10.230;2023-07-31T02:44:18;24.70;99.90
45765;DHT22;31474;45.332;10.230;2023-07-31T02:46:45;24.80;99.90
45765;DHT22;31474;45.332;10.230;2023-07-31T02:49:11;24.80;99.90
45765;DHT22;31474;45.332;10.230;2023-07-31T02:51:37;24.80;99.90
45765;DHT22;31474;45.332;10.230;2023-07-31T02:54:02;24.80;99.90
45765;DHT22;31474;45.332;10.230;2023-07-31T02:56:28;24.80;99.90
45765;DHT22;31474;45.332;10.230;2023-07-31T02:58:54;24.80;99.90
45765;DHT22;31474;45.332;10.230;2023-07-31T03:01:19;24.80;99.90
45765;DHT22;31474;45.332;10.230;2023-07-31T03:03:45;24.80;99.90
45765;DHT22;31474;45.332;10.230;2023-07-31T03:06:10;24.80;99.90
45765;DHT22;31474;45.332;10.230;2023-07-31T03:08:36;24.60;99.90
45765;DHT22;31474;45.332;10.230;2023-07-31T03:11:02;24.70;99.90
45765;DHT22;31474;45.332;10.230;2023-07-31T03:13:27;24.60;99.90
45765;DHT22;31474;45.332;10.230;2023-07-31T03:15:53;24.60;99.90
45765;DHT22;31474;45.332;10.230;2023-07-31T03:18:19;24.60;99.90
45765;DHT22;31474;45.332;10.230;2023-07-31T03:20:44;24.60;99.90
45765;DHT22;31474;45.332;10.230;2023-07-31T03:23:10;24.60;99.90
45765;DHT22;31474;45.332;10.230;2023-07-31T03:25:36;24.50;99.90
45765;DHT22;31474;45.332;10.230;2023-07-31T03:28:02;24.40;99.90
45765;DHT22;31474;45.332;10.230;2023-07-31T03:30:27;24.40;99.90
45765;DHT22;31474;45.332;10.230;2023-07-31T03:32:53;24.50;99.90
45765;DHT22;31474;45.332;10.230;2023-07-31T03:35:19;24.40;99.90
45765;DHT22;31474;45.332;10.230;2023-07-31T03:37:44;24.40;99.90
45765;DHT22;31474;45.332;10.230;2023-07-31T03:40:10;24.40;99.90
45765;DHT22;31474;45.332;10.230;2023-07-31T03:42:36;24.30;99.90
45765;DHT22;31474;45.332;10.230;2023-07-31T03:45:02;24.30;99.90
45765;DHT22;31474;45.332;10.230;2023-07-31T03:47:28;24.30;99.90
45765;DHT22;31474;45.332;10.230;2023-07-31T03:49:53;24.30;99.90
45765;DHT22;31474;45.332;10.230;2023-07-31T03:52:19;24.30;99.90
45765;DHT22;31474;45.332;10.230;2023-07-31T03:54:45;24.30;99.90
45765;DHT22;31474;45.332;10.230;2023-07-31T03:57:11;24.30;99.90
45765;DHT22;31474;45.332;10.230;2023-07-31T03:59:37;24.30;99.90
45765;DHT22;31474;45.332;10.230;2023-07-31T04:02:04;24.20;99.90
45765;DHT22;31474;45.332;10.230;2023-07-31T04:04:30;24.30;99.90
45765;DHT22;31474;45.332;10.230;2023-07-31T04:06:55;24.30;99.90
45765;DHT22;31474;45.332;10.230;2023-07-31T04:09:21;24.20;99.90
45765;DHT22;31474;45.332;10.230;2023-07-31T04:11:47;24.20;99.90
45765;DHT22;31474;45.332;10.230;2023-07-31T04:14:12;24.20;99.90
45765;DHT22;31474;45.332;10.230;2023-07-31T04:16:38;24.10;99.90
45765;DHT22;31474;45.332;10.230;2023-07-31T04:19:04;24.10;99.90
45765;DHT22;31474;45.332;10.230;2023-07-31T04:21:29;24.20;99.90
45765;DHT22;31474;45.332;10.230;2023-07-31T04:23:55;24.20;99.90
45765;DHT22;31474;45.332;10.230;2023-07-31T04:26:22;24.10;99.90
45765;DHT22;31474;45.332;10.230;2023-07-31T04:28:47;24.10;99.90
45765;DHT22;31474;45.332;10.230;2023-07-31T04:31:13;24.00;99.90
45765;DHT22;31474;45.332;10.230;2023-07-31T04:33:39;23.90;99.90
45765;DHT22;31474;45.332;10.230;2023-07-31T04:36:04;24.00;99.90
45765;DHT22;31474;45.332;10.230;2023-07-31T04:38:30;23.90;99.90
45765;DHT22;31474;45.332;10.230;2023-07-31T04:40:56;23.90;99.90
45765;DHT22;31474;45.332;10.230;2023-07-31T04:43:21;24.00;99.90
45765;DHT22;31474;45.332;10.230;2023-07-31T04:45:47;24.00;99.90
45765;DHT22;31474;45.332;10.230;2023-07-31T04:48:14;24.00;99.90
45765;DHT22;31474;45.332;10.230;2023-07-31T04:50:40;24.00;99.90
45765;DHT22;31474;45.332;10.230;2023-07-31T04:53:05;24.10;99.90
45765;DHT22;31474;45.332;10.230;2023-07-31T04:55:31;24.10;99.90
45765;DHT22;31474;45.332;10.230;2023-07-31T04:57:58;24.00;99.90
45765;DHT22;31474;45.332;10.230;2023-07-31T05:00:24;24.10;99.90
45765;DHT22;31474;45.332;10.230;2023-07-31T05:02:50;24.10;99.90
45765;DHT22;31474;45.332;10.230;2023-07-31T05:05:15;24.10;99.90
45765;DHT22;31474;45.332;10.230;2023-07-31T05:07:41;24.20;99.90
45765;DHT22;31474;45.332;10.230;2023-07-31T05:10:07;24.20;99.90
45765;DHT22;31474;45.332;10.230;2023-07-31T05:12:33;24.30;99.90
45765;DHT22;31474;45.332;10.230;2023-07-31T05:14:58;24.40;99.90
45765;DHT22;31474;45.332;10.230;2023-07-31T05:17:24;24.50;99.90
45765;DHT22;31474;45.332;10.230;2023-07-31T05:19:50;24.50;99.90
45765;DHT22;31474;45.332;10.230;2023-07-31T05:22:15;24.60;99.90
45765;DHT22;31474;45.332;10.230;2023-07-31T05:24:41;24.60;99.90
45765;DHT22;31474;45.332;10.230;2023-07-31T05:27:06;24.60;99.90
45765;DHT22;31474;45.332;10.230;2023-07-31T05:29:32;24.70;99.90
45765;DHT22;31474;45.332;10.230;2023-07-31T05:31:58;24.80;99.90
45765;DHT22;31474;45.332;10.230;2023-07-31T05:34:23;24.80;99.90
45765;DHT22;31474;45.332;10.230;2023-07-31T05:36:49;24.90;99.90
45765;DHT22;31474;45.332;10.230;2023-07-31T05:39:15;24.90;99.90
45765;DHT22;31474;45.332;10.230;2023-07-31T05:41:40;25.00;99.90
45765;DHT22;31474;45.332;10.230;2023-07-31T05:44:06;25.10;99.90
45765;DHT22;31474;45.332;10.230;2023-07-31T05:46:32;25.20;99.90
45765;DHT22;31474;45.332;10.230;2023-07-31T05:48:58;25.20;99.90
45765;DHT22;31474;45.332;10.230;2023-07-31T05:51:26;25.30;99.90
45765;DHT22;31474;45.332;10.230;2023-07-31T05:53:52;25.30;99.90
45765;DHT22;31474;45.332;10.230;2023-07-31T05:56:17;25.20;99.90
45765;DHT22;31474;45.332;10.230;2023-07-31T05:58:43;25.20;99.90
45765;DHT22;31474;45.332;10.230;2023-07-31T06:01:08;25.30;99.90
45765;DHT22;31474;45.332;10.230;2023-07-31T06:03:34;25.30;99.90
45765;DHT22;31474;45.332;10.230;2023-07-31T06:06:00;25.50;99.90
45765;DHT22;31474;45.332;10.230;2023-07-31T06:08:25;25.70;99.90
45765;DHT22;31474;45.332;10.230;2023-07-31T06:10:51;25.80;99.90
45765;DHT22;31474;45.332;10.230;2023-07-31T06:13:17;25.90;99.90
45765;DHT22;31474;45.332;10.230;2023-07-31T06:15:42;25.90;99.90
45765;DHT22;31474;45.332;10.230;2023-07-31T06:18:08;25.80;99.90
45765;DHT22;31474;45.332;10.230;2023-07-31T06:20:34;25.80;99.90
45765;DHT22;31474;45.332;10.230;2023-07-31T06:23:00;25.80;99.90
45765;DHT22;31474;45.332;10.230;2023-07-31T06:25:26;25.90;99.90
45765;DHT22;31474;45.332;10.230;2023-07-31T06:27:51;26.00;99.90
45765;DHT22;31474;45.332;10.230;2023-07-31T06:30:17;26.00;99.90
45765;DHT22;31474;45.332;10.230;2023-07-31T06:32:42;26.10;99.90
45765;DHT22;31474;45.332;10.230;2023-07-31T06:35:08;26.30;99.90
45765;DHT22;31474;45.332;10.230;2023-07-31T06:37:34;26.30;99.90
45765;DHT22;31474;45.332;10.230;2023-07-31T06:40:00;26.30;99.90
45765;DHT22;31474;45.332;10.230;2023-07-31T06:42:25;26.40;99.90
45765;DHT22;31474;45.332;10.230;2023-07-31T06:44:51;26.60;99.90
45765;DHT22;31474;45.332;10.230;2023-07-31T06:47:17;26.50;99.90
45765;DHT22;31474;45.332;10.230;2023-07-31T06:49:42;26.50;99.90
45765;DHT22;31474;45.332;10.230;2023-07-31T06:52:08;26.50;99.90
45765;DHT22;31474;45.332;10.230;2023-07-31T06:54:35;26.40;99.90
45765;DHT22;31474;45.332;10.230;2023-07-31T06:57:00;26.50;99.90
45765;DHT22;31474;45.332;10.230;2023-07-31T06:59:26;26.60;99.90
45765;DHT22;31474;45.332;10.230;2023-07-31T07:01:51;26.70;99.90
45765;DHT22;31474;45.332;10.230;2023-07-31T07:04:17;26.80;99.90
45765;DHT22;31474;45.332;10.230;2023-07-31T07:06:43;26.80;99.90
45765;DHT22;31474;45.332;10.230;2023-07-31T07:09:08;26.80;99.90
45765;DHT22;31474;45.332;10.230;2023-07-31T07:11:34;26.90;99.90
45765;DHT22;31474;45.332;10.230;2023-07-31T07:13:59;27.00;99.90
45765;DHT22;31474;45.332;10.230;2023-07-31T07:16:28;27.10;99.90
45765;DHT22;31474;45.332;10.230;2023-07-31T07:18:53;27.10;99.90
45765;DHT22;31474;45.332;10.230;2023-07-31T07:21:19;27.00;99.90
45765;DHT22;31474;45.332;10.230;2023-07-31T07:23:45;26.90;99.90
45765;DHT22;31474;45.332;10.230;2023-07-31T07:26:11;26.80;99.90
45765;DHT22;31474;45.332;10.230;2023-07-31T07:28:36;26.80;99.90
45765;DHT22;31474;45.332;10.230;2023-07-31T07:31:03;26.80;99.90
45765;DHT22;31474;45.332;10.230;2023-07-31T07:33:28;26.80;99.90
45765;DHT22;31474;45.332;10.230;2023-07-31T07:35:54;26.90;99.90
45765;DHT22;31474;45.332;10.230;2023-07-31T07:38:20;27.00;99.90
45765;DHT22;31474;45.332;10.230;2023-07-31T07:40:46;27.00;99.90
45765;DHT22;31474;45.332;10.230;2023-07-31T07:43:15;27.00;99.90
45765;DHT22;31474;45.332;10.230;2023-07-31T07:45:41;27.00;99.90
45765;DHT22;31474;45.332;10.230;2023-07-31T07:48:07;27.10;99.90
45765;DHT22;31474;45.332;10.230;2023-07-31T07:50:32;27.40;99.90
45765;DHT22;31474;45.332;10.230;2023-07-31T07:52:58;27.70;99.90
45765;DHT22;31474;45.332;10.230;2023-07-31T07:55:24;27.80;99.90
45765;DHT22;31474;45.332;10.230;2023-07-31T07:57:49;27.70;99.90
45765;DHT22;31474;45.332;10.230;2023-07-31T08:00:16;27.90;99.90
45765;DHT22;31474;45.332;10.230;2023-07-31T08:02:43;28.00;99.90
45765;DHT22;31474;45.332;10.230;2023-07-31T08:05:08;28.00;99.90
45765;DHT22;31474;45.332;10.230;2023-07-31T08:07:34;27.90;99.90
45765;DHT22;31474;45.332;10.230;2023-07-31T08:10:00;27.80;99.90
45765;DHT22;31474;45.332;10.230;2023-07-31T08:12:25;27.60;99.90
45765;DHT22;31474;45.332;10.230;2023-07-31T08:14:51;27.60;99.90
45765;DHT22;31474;45.332;10.230;2023-07-31T08:17:17;27.60;99.90
45765;DHT22;31474;45.332;10.230;2023-07-31T08:19:43;27.50;99.90
45765;DHT22;31474;45.332;10.230;2023-07-31T08:22:09;27.60;99.90
45765;DHT22;31474;45.332;10.230;2023-07-31T08:24:35;27.60;99.90
45765;DHT22;31474;45.332;10.230;2023-07-31T08:27:00;27.90;99.90
45765;DHT22;31474;45.332;10.230;2023-07-31T08:29:26;28.10;99.90
45765;DHT22;31474;45.332;10.230;2023-07-31T08:31:52;28.30;99.90
45765;DHT22;31474;45.332;10.230;2023-07-31T08:34:17;28.50;99.90
45765;DHT22;31474;45.332;10.230;2023-07-31T08:36:43;28.70;99.90
45765;DHT22;31474;45.332;10.230;2023-07-31T08:39:09;28.80;99.90
45765;DHT22;31474;45.332;10.230;2023-07-31T08:41:40;28.80;99.90
45765;DHT22;31474;45.332;10.230;2023-07-31T08:44:07;28.90;99.90
45765;DHT22;31474;45.332;10.230;2023-07-31T08:46:33;29.10;99.90
45765;DHT22;31474;45.332;10.230;2023-07-31T08:49:00;29.10;99.90
45765;DHT22;31474;45.332;10.230;2023-07-31T08:51:27;29.30;99.90
45765;DHT22;31474;45.332;10.230;2023-07-31T08:53:53;29.40;99.90
45765;DHT22;31474;45.332;10.230;2023-07-31T08:56:19;29.50;99.90
45765;DHT22;31474;45.332;10.230;2023-07-31T08:58:46;29.70;99.90
45765;DHT22;31474;45.332;10.230;2023-07-31T09:01:13;29.30;99.90
45765;DHT22;31474;45.332;10.230;2023-07-31T09:03:40;29.40;99.90
45765;DHT22;31474;45.332;10.230;2023-07-31T09:06:07;29.40;99.90
45765;DHT22;31474;45.332;10.230;2023-07-31T09:08:33;29.40;99.90
45765;DHT22;31474;45.332;10.230;2023-07-31T09:11:01;29.50;99.90
45765;DHT22;31474;45.332;10.230;2023-07-31T09:13:30;29.60;99.90
45765;DHT22;31474;45.332;10.230;2023-07-31T09:15:56;29.60;99.90
45765;DHT22;31474;45.332;10.230;2023-07-31T09:18:22;29.50;99.90
45765;DHT22;31474;45.332;10.230;2023-07-31T09:21:04;29.30;99.90
45765;DHT22;31474;45.332;10.230;2023-07-31T09:23:45;29.20;99.90
45765;DHT22;31474;45.332;10.230;2023-07-31T09:26:11;29.20;99.90
45765;DHT22;31474;45.332;10.230;2023-07-31T09:28:37;29.50;99.90
45765;DHT22;31474;45.332;10.230;2023-07-31T09:31:03;29.60;99.90
45765;DHT22;31474;45.332;10.230;2023-07-31T09:33:28;29.80;99.90
45765;DHT22;31474;45.332;10.230;2023-07-31T09:35:54;30.00;99.90
45765;DHT22;31474;45.332;10.230;2023-07-31T09:38:20;30.00;99.90
45765;DHT22;31474;45.332;10.230;2023-07-31T09:40:47;29.90;99.90
45765;DHT22;31474;45.332;10.230;2023-07-31T09:43:17;29.70;99.90
45765;DHT22;31474;45.332;10.230;2023-07-31T09:45:44;29.60;99.90
45765;DHT22;31474;45.332;10.230;2023-07-31T09:48:12;29.70;99.90
45765;DHT22;31474;45.332;10.230;2023-07-31T09:50:41;29.70;99.90
45765;DHT22;31474;45.332;10.230;2023-07-31T09:53:07;29.90;99.90
45765;DHT22;31474;45.332;10.230;2023-07-31T09:55:34;30.10;99.90
45765;DHT22;31474;45.332;10.230;2023-07-31T09:58:07;30.20;99.90
45765;DHT22;31474;45.332;10.230;2023-07-31T10:00:33;30.30;99.90
45765;DHT22;31474;45.332;10.230;2023-07-31T10:03:00;30.50;99.90
45765;DHT22;31474;45.332;10.230;2023-07-31T10:05:34;30.70;99.90
45765;DHT22;31474;45.332;10.230;2023-07-31T10:08:00;30.70;99.90
45765;DHT22;31474;45.332;10.230;2023-07-31T10:10:26;30.80;99.90
45765;DHT22;31474;45.332;10.230;2023-07-31T10:12:53;30.90;99.90
45765;DHT22;31474;45.332;10.230;2023-07-31T10:15:20;31.00;99.90
45765;DHT22;31474;45.332;10.230;2023-07-31T10:17:48;31.00;99.90
45765;DHT22;31474;45.332;10.230;2023-07-31T10:20:15;31.00;99.90
45765;DHT22;31474;45.332;10.230;2023-07-31T10:22:43;30.90;99.80
45765;DHT22;31474;45.332;10.230;2023-07-31T10:25:09;30.80;99.90
45765;DHT22;31474;45.332;10.230;2023-07-31T10:27:39;30.90;98.70
45765;DHT22;31474;45.332;10.230;2023-07-31T10:30:26;31.00;99.40
45765;DHT22;31474;45.332;10.230;2023-07-31T10:32:53;31.00;98.90
45765;DHT22;31474;45.332;10.230;2023-07-31T10:35:20;31.00;99.90
45765;DHT22;31474;45.332;10.230;2023-07-31T10:37:47;31.10;99.80
45765;DHT22;31474;45.332;10.230;2023-07-31T10:40:25;31.00;99.70
45765;DHT22;31474;45.332;10.230;2023-07-31T10:42:55;31.00;98.20
45765;DHT22;31474;45.332;10.230;2023-07-31T10:50:38;31.00;98.70
45765;DHT22;31474;45.332;10.230;2023-07-31T10:53:04;31.10;99.40
45765;DHT22;31474;45.332;10.230;2023-07-31T10:55:42;31.00;99.30
45765;DHT22;31474;45.332;10.230;2023-07-31T10:58:12;31.00;98.20
45765;DHT22;31474;45.332;10.230;2023-07-31T11:00:40;31.00;99.60
45765;DHT22;31474;45.332;10.230;2023-07-31T11:03:15;30.90;99.70
45765;DHT22;31474;45.332;10.230;2023-07-31T11:06:08;30.90;98.90
45765;DHT22;31474;45.332;10.230;2023-07-31T11:08:36;31.00;98.90
45765;DHT22;31474;45.332;10.230;2023-07-31T11:11:11;31.00;99.30
45765;DHT22;31474;45.332;10.230;2023-07-31T11:13:50;31.00;99.10
45765;DHT22;31474;45.332;10.230;2023-07-31T11:16:19;31.10;98.60
45765;DHT22;31474;45.332;10.230;2023-07-31T11:18:46;31.00;98.50
45765;DHT22;31474;45.332;10.230;2023-07-31T11:21:14;31.10;98.90
45765;DHT22;31474;45.332;10.230;2023-07-31T11:23:41;31.20;99.00
45765;DHT22;31474;45.332;10.230;2023-07-31T11:26:07;31.20;98.40
45765;DHT22;31474;45.332;10.230;2023-07-31T11:28:34;31.30;98.80
45765;DHT22;31474;45.332;10.230;2023-07-31T11:31:01;31.20;99.00
45765;DHT22;31474;45.332;10.230;2023-07-31T11:33:26;31.20;98.00
45765;DHT22;31474;45.332;10.230;2023-07-31T11:35:52;31.00;98.40
45765;DHT22;31474;45.332;10.230;2023-07-31T11:38:26;31.00;98.40
45765;DHT22;31474;45.332;10.230;2023-07-31T11:41:02;31.00;97.80
45765;DHT22;31474;45.332;10.230;2023-07-31T11:43:28;31.00;98.40
45765;DHT22;31474;45.332;10.230;2023-07-31T11:45:56;31.00;97.90
45765;DHT22;31474;45.332;10.230;2023-07-31T11:48:30;31.00;97.30
45765;DHT22;31474;45.332;10.230;2023-07-31T11:51:00;30.90;97.00
45765;DHT22;31474;45.332;10.230;2023-07-31T11:53:40;30.80;97.10
45765;DHT22;31474;45.332;10.230;2023-07-31T11:56:09;30.70;97.60
45765;DHT22;31474;45.332;10.230;2023-07-31T11:58:37;30.90;97.50
45765;DHT22;31474;45.332;10.230;2023-07-31T12:01:04;31.00;97.70
45765;DHT22;31474;45.332;10.230;2023-07-31T12:03:31;31.10;97.40
45765;DHT22;31474;45.332;10.230;2023-07-31T12:05:58;31.20;97.80
45765;DHT22;31474;45.332;10.230;2023-07-31T12:08:25;31.30;97.60
45765;DHT22;31474;45.332;10.230;2023-07-31T12:10:52;31.40;97.30
45765;DHT22;31474;45.332;10.230;2023-07-31T12:13:25;31.40;97.60
45765;DHT22;31474;45.332;10.230;2023-07-31T12:15:56;31.40;96.90
45765;DHT22;31474;45.332;10.230;2023-07-31T12:18:23;31.40;96.70
45765;DHT22;31474;45.332;10.230;2023-07-31T12:20:55;31.20;96.50
45765;DHT22;31474;45.332;10.230;2023-07-31T12:23:26;31.10;97.10
45765;DHT22;31474;45.332;10.230;2023-07-31T12:28:26;31.10;96.30
45765;DHT22;31474;45.332;10.230;2023-07-31T12:31:00;31.30;97.60
45765;DHT22;31474;45.332;10.230;2023-07-31T12:33:36;31.40;96.90
45765;DHT22;31474;45.332;10.230;2023-07-31T12:36:04;31.30;96.80
45765;DHT22;31474;45.332;10.230;2023-07-31T12:38:30;31.20;96.50
45765;DHT22;31474;45.332;10.230;2023-07-31T12:40:56;31.20;96.40
45765;DHT22;31474;45.332;10.230;2023-07-31T12:43:22;31.40;97.00
45765;DHT22;31474;45.332;10.230;2023-07-31T12:45:47;31.30;96.60
45765;DHT22;31474;45.332;10.230;2023-07-31T12:48:13;31.20;96.00
45765;DHT22;31474;45.332;10.230;2023-07-31T12:50:39;31.00;96.20
45765;DHT22;31474;45.332;10.230;2023-07-31T12:53:05;31.00;97.10
45765;DHT22;31474;45.332;10.230;2023-07-31T12:55:32;31.00;96.20
45765;DHT22;31474;45.332;10.230;2023-07-31T12:58:00;31.10;97.20
45765;DHT22;31474;45.332;10.230;2023-07-31T13:00:26;31.20;97.30
45765;DHT22;31474;45.332;10.230;2023-07-31T13:02:52;31.20;97.10
45765;DHT22;31474;45.332;10.230;2023-07-31T13:05:18;31.30;97.40
45765;DHT22;31474;45.332;10.230;2023-07-31T13:07:46;31.20;96.80
45765;DHT22;31474;45.332;10.230;2023-07-31T13:10:12;31.10;96.10
45765;DHT22;31474;45.332;10.230;2023-07-31T13:12:37;31.10;96.60
45765;DHT22;31474;45.332;10.230;2023-07-31T13:15:04;31.00;96.50
45765;DHT22;31474;45.332;10.230;2023-07-31T13:17:31;31.20;96.90
45765;DHT22;31474;45.332;10.230;2023-07-31T13:19:56;31.30;97.00
45765;DHT22;31474;45.332;10.230;2023-07-31T13:22:22;31.20;96.10
45765;DHT22;31474;45.332;10.230;2023-07-31T13:24:47;31.30;96.50
45765;DHT22;31474;45.332;10.230;2023-07-31T13:27:13;31.40;96.90
45765;DHT22;31474;45.332;10.230;2023-07-31T13:29:44;31.50;97.20
45765;DHT22;31474;45.332;10.230;2023-07-31T13:32:09;31.60;96.60
45765;DHT22;31474;45.332;10.230;2023-07-31T13:34:35;31.60;96.70
45765;DHT22;31474;45.332;10.230;2023-07-31T13:37:00;31.60;96.80
45765;DHT22;31474;45.332;10.230;2023-07-31T13:39:26;31.50;96.80
45765;DHT22;31474;45.332;10.230;2023-07-31T13:41:52;31.70;97.00
45765;DHT22;31474;45.332;10.230;2023-07-31T13:44:17;31.60;96.60
45765;DHT22;31474;45.332;10.230;2023-07-31T13:46:43;31.50;96.40
45765;DHT22;31474;45.332;10.230;2023-07-31T13:49:08;31.40;96.50
45765;DHT22;31474;45.332;10.230;2023-07-31T13:51:34;31.30;96.70
45765;DHT22;31474;45.332;10.230;2023-07-31T13:54:01;31.30;96.70
45765;DHT22;31474;45.332;10.230;2023-07-31T13:56:27;31.40;96.10
45765;DHT22;31474;45.332;10.230;2023-07-31T13:58:52;31.40;96.30
45765;DHT22;31474;45.332;10.230;2023-07-31T14:01:18;31.40;96.60
45765;DHT22;31474;45.332;10.230;2023-07-31T14:03:44;31.50;96.70
45765;DHT22;31474;45.332;10.230;2023-07-31T14:06:09;31.60;96.80
45765;DHT22;31474;45.332;10.230;2023-07-31T14:08:35;31.60;96.60
45765;DHT22;31474;45.332;10.230;2023-07-31T14:11:01;31.50;96.60
45765;DHT22;31474;45.332;10.230;2023-07-31T14:13:26;31.40;96.70
45765;DHT22;31474;45.332;10.230;2023-07-31T14:15:52;31.40;96.80
45765;DHT22;31474;45.332;10.230;2023-07-31T14:18:18;31.50;96.70
45765;DHT22;31474;45.332;10.230;2023-07-31T14:20:44;31.40;96.70
45765;DHT22;31474;45.332;10.230;2023-07-31T14:23:10;31.40;97.00
45765;DHT22;31474;45.332;10.230;2023-07-31T14:25:35;31.30;96.70
45765;DHT22;31474;45.332;10.230;2023-07-31T14:28:01;31.30;96.80
45765;DHT22;31474;45.332;10.230;2023-07-31T14:30:27;31.30;97.00
45765;DHT22;31474;45.332;10.230;2023-07-31T14:32:52;31.30;97.10
45765;DHT22;31474;45.332;10.230;2023-07-31T14:35:18;31.30;97.10
45765;DHT22;31474;45.332;10.230;2023-07-31T14:37:45;31.30;96.70
45765;DHT22;31474;45.332;10.230;2023-07-31T14:40:12;31.30;96.70
45765;DHT22;31474;45.332;10.230;2023-07-31T14:42:39;31.30;96.80
45765;DHT22;31474;45.332;10.230;2023-07-31T14:45:06;31.40;97.00
45765;DHT22;31474;45.332;10.230;2023-07-31T14:47:32;31.40;96.30
45765;DHT22;31474;45.332;10.230;2023-07-31T14:49:58;31.40;96.60
45765;DHT22;31474;45.332;10.230;2023-07-31T14:52:24;31.40;96.30
45765;DHT22;31474;45.332;10.230;2023-07-31T14:54:50;31.30;96.60
45765;DHT22;31474;45.332;10.230;2023-07-31T14:57:15;31.40;96.50
45765;DHT22;31474;45.332;10.230;2023-07-31T14:59:41;31.30;96.40
45765;DHT22;31474;45.332;10.230;2023-07-31T15:02:10;31.30;96.00
45765;DHT22;31474;45.332;10.230;2023-07-31T15:04:36;31.30;96.00
45765;DHT22;31474;45.332;10.230;2023-07-31T15:07:02;31.30;96.10
45765;DHT22;31474;45.332;10.230;2023-07-31T15:09:28;31.20;96.30
45765;DHT22;31474;45.332;10.230;2023-07-31T15:11:53;31.20;96.50
45765;DHT22;31474;45.332;10.230;2023-07-31T15:14:19;31.10;96.60
45765;DHT22;31474;45.332;10.230;2023-07-31T15:16:45;31.00;96.30
45765;DHT22;31474;45.332;10.230;2023-07-31T15:19:11;30.90;96.60
45765;DHT22;31474;45.332;10.230;2023-07-31T15:21:37;30.90;96.30